DLH3509 EDDH-EDLP
Flight info
| Callsign | DLH3509 |
|---|---|
| Flight time | 0h 31m |
| Altitude | 21000 |
| Route | IDEKO8C/05 IDEKO N850 ROBEG/N0269F060 Q208 PAD |
| Aircraft | A320/M-SDE3FGHIRWY/LB1 |
Departure
| Time | 2026-05-07 11:30 |
|---|---|
| Airport | Hamburg Helmut Schmidt Airport (EDDH) |
Arrival
| Time | 2026-05-07 12:02 |
|---|---|
| Airport | Paderborn Lippstadt Airport (EDLP) |
| Time | Latitude | Longitude | Altitude | Speed | Heading |
|---|---|---|---|---|---|
| 2026-05-07 10:36 | 53.63334 | 10.00353 | 51 ft | 0 kts | 86° |
| 2026-05-07 11:10 | 53.63334 | 10.00354 | 51 ft | 0 kts | 86° |
| 2026-05-07 11:20 | 53.63334 | 10.00352 | 51 ft | 1 kts | 86° |
| 2026-05-07 11:20 | 53.63332 | 10.00310 | 51 ft | 4 kts | 86° |
| 2026-05-07 11:21 | 53.63330 | 10.00274 | 51 ft | 4 kts | 90° |
| 2026-05-07 11:21 | 53.63336 | 10.00238 | 49 ft | 4 kts | 150° |
| 2026-05-07 11:21 | 53.63355 | 10.00231 | 48 ft | 1 kts | 176° |
| 2026-05-07 11:25 | 53.63317 | 10.00235 | 51 ft | 8 kts | 176° |
| 2026-05-07 11:25 | 53.63258 | 10.00241 | 51 ft | 14 kts | 176° |
| 2026-05-07 11:25 | 53.63147 | 10.00254 | 48 ft | 15 kts | 175° |
| 2026-05-07 11:25 | 53.63048 | 10.00238 | 51 ft | 14 kts | 207° |
| 2026-05-07 11:26 | 53.62978 | 10.00166 | 51 ft | 9 kts | 214° |
| 2026-05-07 11:26 | 53.62929 | 10.00110 | 51 ft | 8 kts | 213° |
| 2026-05-07 11:26 | 53.62885 | 10.00062 | 51 ft | 7 kts | 218° |
| 2026-05-07 11:26 | 53.62848 | 10.00007 | 51 ft | 9 kts | 215° |
| 2026-05-07 11:27 | 53.62725 | 9.99887 | 49 ft | 25 kts | 208° |
| 2026-05-07 11:27 | 53.62646 | 9.99790 | 50 ft | 11 kts | 236° |
| 2026-05-07 11:27 | 53.62628 | 9.99668 | 50 ft | 15 kts | 258° |
| 2026-05-07 11:27 | 53.62591 | 9.99350 | 49 ft | 32 kts | 259° |
| 2026-05-07 11:28 | 53.62549 | 9.98973 | 49 ft | 34 kts | 259° |
| 2026-05-07 11:28 | 53.62507 | 9.98574 | 49 ft | 36 kts | 260° |
| 2026-05-07 11:28 | 53.62452 | 9.98182 | 50 ft | 33 kts | 246° |
| 2026-05-07 11:28 | 53.62317 | 9.97860 | 50 ft | 35 kts | 229° |
| 2026-05-07 11:29 | 53.62184 | 9.97562 | 49 ft | 24 kts | 259° |
| 2026-05-07 11:29 | 53.62247 | 9.97376 | 49 ft | 19 kts | 337° |
| 2026-05-07 11:29 | 53.62339 | 9.97441 | 48 ft | 0 kts | 80° |
| 2026-05-07 11:29 | 53.62344 | 9.97450 | 48 ft | 0 kts | 49° |
| 2026-05-07 11:30 | 53.62372 | 9.97501 | 47 ft | 31 kts | 48° |
| 2026-05-07 11:30 | 53.62685 | 9.98129 | 50 ft | 105 kts | 50° |
| 2026-05-07 11:30 | 53.63278 | 9.99320 | 61 ft | 157 kts | 52° |
| 2026-05-07 11:30 | 53.63960 | 10.00712 | 893 ft | 152 kts | 52° |
| 2026-05-07 11:31 | 53.64643 | 10.02105 | 1727 ft | 160 kts | 50° |
| 2026-05-07 11:31 | 53.65402 | 10.03650 | 2176 ft | 182 kts | 51° |
| 2026-05-07 11:31 | 53.66255 | 10.05387 | 2609 ft | 205 kts | 52° |
| 2026-05-07 11:31 | 53.67172 | 10.07261 | 3558 ft | 206 kts | 52° |
| 2026-05-07 11:32 | 53.68766 | 10.11403 | 5086 ft | 231 kts | 81° |
| 2026-05-07 11:32 | 53.68526 | 10.14164 | 5717 ft | 251 kts | 116° |
| 2026-05-07 11:32 | 53.67295 | 10.16265 | 6570 ft | 267 kts | 150° |
| 2026-05-07 11:33 | 53.65427 | 10.16854 | 7461 ft | 281 kts | 186° |
| 2026-05-07 11:33 | 53.63548 | 10.15787 | 8398 ft | 289 kts | 206° |
| 2026-05-07 11:33 | 53.61866 | 10.13987 | 9408 ft | 292 kts | 216° |
| 2026-05-07 11:33 | 53.60220 | 10.11879 | 10091 ft | 294 kts | 218° |
| 2026-05-07 11:34 | 53.58552 | 10.09684 | 10593 ft | 315 kts | 218° |
| 2026-05-07 11:34 | 53.56738 | 10.07387 | 11144 ft | 330 kts | 216° |
| 2026-05-07 11:34 | 53.54871 | 10.05145 | 11963 ft | 335 kts | 215° |
| 2026-05-07 11:34 | 53.52957 | 10.02952 | 12828 ft | 338 kts | 214° |
| 2026-05-07 11:35 | 53.50956 | 10.00733 | 13691 ft | 342 kts | 213° |
| 2026-05-07 11:35 | 53.48949 | 9.98544 | 14454 ft | 346 kts | 214° |
| 2026-05-07 11:35 | 53.46917 | 9.96349 | 15213 ft | 348 kts | 213° |
| 2026-05-07 11:35 | 53.44873 | 9.94141 | 15984 ft | 350 kts | 213° |
| 2026-05-07 11:36 | 53.42818 | 9.91917 | 16713 ft | 353 kts | 214° |
| 2026-05-07 11:36 | 53.40777 | 9.89697 | 17478 ft | 355 kts | 214° |
| 2026-05-07 11:36 | 53.38701 | 9.87440 | 18267 ft | 357 kts | 214° |
| 2026-05-07 11:36 | 53.36612 | 9.85163 | 18900 ft | 360 kts | 214° |
| 2026-05-07 11:37 | 53.34505 | 9.82859 | 19501 ft | 364 kts | 214° |
| 2026-05-07 11:37 | 53.32371 | 9.80531 | 20123 ft | 367 kts | 214° |
| 2026-05-07 11:37 | 53.30231 | 9.78197 | 20760 ft | 369 kts | 214° |
| 2026-05-07 11:37 | 53.28065 | 9.75847 | 21000 ft | 371 kts | 214° |
| 2026-05-07 11:38 | 53.26611 | 9.74279 | 21053 ft | 365 kts | 213° |
| 2026-05-07 11:38 | 53.24519 | 9.72025 | 21060 ft | 353 kts | 214° |
| 2026-05-07 11:38 | 53.22467 | 9.69812 | 21061 ft | 350 kts | 214° |
| 2026-05-07 11:38 | 53.20427 | 9.67611 | 21062 ft | 349 kts | 213° |
| 2026-05-07 11:39 | 53.18385 | 9.65406 | 21064 ft | 349 kts | 213° |
| 2026-05-07 11:39 | 53.16343 | 9.63202 | 21064 ft | 350 kts | 213° |
| 2026-05-07 11:39 | 53.14302 | 9.61004 | 21064 ft | 350 kts | 214° |
| 2026-05-07 11:39 | 53.12262 | 9.58810 | 21064 ft | 349 kts | 214° |
| 2026-05-07 11:40 | 53.10222 | 9.56620 | 21066 ft | 349 kts | 213° |
| 2026-05-07 11:40 | 53.08179 | 9.54432 | 21063 ft | 350 kts | 213° |
| 2026-05-07 11:40 | 53.06130 | 9.52243 | 21064 ft | 350 kts | 213° |
| 2026-05-07 11:40 | 53.04085 | 9.50060 | 21072 ft | 350 kts | 214° |
| 2026-05-07 11:41 | 53.02036 | 9.47873 | 21072 ft | 350 kts | 213° |
| 2026-05-07 11:41 | 52.99903 | 9.45928 | 21070 ft | 350 kts | 204° |
| 2026-05-07 11:41 | 52.97581 | 9.44713 | 21066 ft | 352 kts | 193° |
| 2026-05-07 11:41 | 52.95157 | 9.44136 | 21065 ft | 352 kts | 189° |
| 2026-05-07 11:42 | 52.92720 | 9.43617 | 21066 ft | 352 kts | 189° |
| 2026-05-07 11:42 | 52.90291 | 9.43098 | 21066 ft | 352 kts | 188° |
| 2026-05-07 11:42 | 52.87862 | 9.42580 | 21065 ft | 352 kts | 188° |
| 2026-05-07 11:42 | 52.85432 | 9.42062 | 21057 ft | 353 kts | 188° |
| 2026-05-07 11:43 | 52.82990 | 9.41539 | 21055 ft | 353 kts | 188° |
| 2026-05-07 11:43 | 52.80557 | 9.41021 | 21057 ft | 353 kts | 188° |
| 2026-05-07 11:43 | 52.78116 | 9.40505 | 21056 ft | 353 kts | 188° |
| 2026-05-07 11:43 | 52.75673 | 9.39988 | 21058 ft | 353 kts | 188° |
| 2026-05-07 11:44 | 52.73239 | 9.39475 | 21056 ft | 353 kts | 188° |
| 2026-05-07 11:44 | 52.70792 | 9.38959 | 21055 ft | 354 kts | 188° |
| 2026-05-07 11:44 | 52.68355 | 9.38443 | 21054 ft | 354 kts | 189° |
| 2026-05-07 11:44 | 52.65908 | 9.37925 | 21055 ft | 354 kts | 188° |
| 2026-05-07 11:45 | 52.63466 | 9.37408 | 21057 ft | 354 kts | 189° |
| 2026-05-07 11:45 | 52.61029 | 9.36868 | 21059 ft | 353 kts | 189° |
| 2026-05-07 11:45 | 52.58605 | 9.36258 | 20934 ft | 350 kts | 190° |
| 2026-05-07 11:45 | 52.56199 | 9.35615 | 20607 ft | 343 kts | 190° |
| 2026-05-07 11:46 | 52.53875 | 9.34981 | 20173 ft | 341 kts | 190° |
| 2026-05-07 11:46 | 52.51523 | 9.34342 | 19744 ft | 339 kts | 191° |
| 2026-05-07 11:46 | 52.49206 | 9.33722 | 19314 ft | 337 kts | 191° |
| 2026-05-07 11:46 | 52.46898 | 9.33108 | 18887 ft | 335 kts | 191° |
| 2026-05-07 11:47 | 52.44601 | 9.32498 | 18465 ft | 334 kts | 190° |
| 2026-05-07 11:47 | 52.42303 | 9.31897 | 18006 ft | 333 kts | 190° |
| 2026-05-07 11:47 | 52.39982 | 9.31298 | 17585 ft | 331 kts | 190° |
| 2026-05-07 11:47 | 52.37755 | 9.30723 | 17174 ft | 329 kts | 190° |
| 2026-05-07 11:48 | 52.35494 | 9.30138 | 16769 ft | 328 kts | 190° |
| 2026-05-07 11:48 | 52.33241 | 9.29550 | 16364 ft | 327 kts | 189° |
| 2026-05-07 11:48 | 52.30964 | 9.28956 | 15959 ft | 327 kts | 189° |
| 2026-05-07 11:48 | 52.28750 | 9.28379 | 15563 ft | 326 kts | 190° |
| 2026-05-07 11:49 | 52.26511 | 9.27794 | 15163 ft | 325 kts | 189° |
| 2026-05-07 11:49 | 52.24292 | 9.27104 | 14761 ft | 324 kts | 197° |
| 2026-05-07 11:49 | 52.22186 | 9.25692 | 14367 ft | 323 kts | 210° |
| 2026-05-07 11:49 | 52.20311 | 9.23756 | 13974 ft | 323 kts | 214° |
| 2026-05-07 11:50 | 52.18408 | 9.21749 | 13537 ft | 323 kts | 213° |
| 2026-05-07 11:50 | 52.16519 | 9.19769 | 13131 ft | 321 kts | 213° |
| 2026-05-07 11:50 | 52.14689 | 9.17858 | 12736 ft | 320 kts | 213° |
| 2026-05-07 11:50 | 52.12821 | 9.15904 | 12326 ft | 318 kts | 214° |
| 2026-05-07 11:51 | 52.10965 | 9.13964 | 11923 ft | 317 kts | 214° |
| 2026-05-07 11:51 | 52.09107 | 9.12024 | 11512 ft | 316 kts | 213° |
| 2026-05-07 11:51 | 52.07287 | 9.10122 | 11326 ft | 304 kts | 213° |
| 2026-05-07 11:51 | 52.05524 | 9.08280 | 10751 ft | 303 kts | 213° |
| 2026-05-07 11:52 | 52.03750 | 9.06429 | 10380 ft | 302 kts | 213° |
| 2026-05-07 11:52 | 52.01967 | 9.04574 | 9900 ft | 297 kts | 213° |
| 2026-05-07 11:52 | 52.00250 | 9.02791 | 9447 ft | 294 kts | 213° |
| 2026-05-07 11:52 | 51.98533 | 9.01007 | 9026 ft | 293 kts | 213° |
| 2026-05-07 11:53 | 51.96815 | 8.99225 | 8602 ft | 292 kts | 212° |
| 2026-05-07 11:53 | 51.94971 | 8.97848 | 8178 ft | 292 kts | 196° |
| 2026-05-07 11:53 | 51.92974 | 8.97307 | 7727 ft | 291 kts | 181° |
| 2026-05-07 11:53 | 51.90962 | 8.97293 | 7195 ft | 288 kts | 179° |
| 2026-05-07 11:54 | 51.88975 | 8.97298 | 6607 ft | 283 kts | 179° |
| 2026-05-07 11:54 | 51.87031 | 8.97302 | 6050 ft | 275 kts | 179° |
| 2026-05-07 11:54 | 51.85138 | 8.97302 | 5522 ft | 268 kts | 179° |
| 2026-05-07 11:54 | 51.83272 | 8.97303 | 4981 ft | 271 kts | 179° |
| 2026-05-07 11:55 | 51.81376 | 8.97304 | 4375 ft | 275 kts | 179° |
| 2026-05-07 11:55 | 51.79459 | 8.97284 | 3607 ft | 274 kts | 183° |
| 2026-05-07 11:55 | 51.77647 | 8.96616 | 3263 ft | 259 kts | 202° |
| 2026-05-07 11:55 | 51.76179 | 8.95262 | 3202 ft | 237 kts | 219° |
| 2026-05-07 11:56 | 51.75021 | 8.93435 | 3093 ft | 226 kts | 234° |
| 2026-05-07 11:56 | 51.74142 | 8.91551 | 2997 ft | 216 kts | 235° |
| 2026-05-07 11:56 | 51.73285 | 8.89702 | 3026 ft | 197 kts | 236° |
| 2026-05-07 11:56 | 51.72506 | 8.88027 | 3015 ft | 176 kts | 235° |
| 2026-05-07 11:57 | 51.71816 | 8.86550 | 3008 ft | 157 kts | 234° |
| 2026-05-07 11:57 | 51.71117 | 8.85252 | 3010 ft | 151 kts | 236° |
| 2026-05-07 11:57 | 51.70510 | 8.83929 | 3006 ft | 145 kts | 239° |
| 2026-05-07 11:57 | 51.69955 | 8.82633 | 3010 ft | 143 kts | 239° |
| 2026-05-07 11:58 | 51.69418 | 8.81339 | 3015 ft | 142 kts | 240° |
| 2026-05-07 11:58 | 51.68873 | 8.80007 | 3016 ft | 142 kts | 240° |
| 2026-05-07 11:58 | 51.68330 | 8.78676 | 2955 ft | 141 kts | 240° |
| 2026-05-07 11:58 | 51.67790 | 8.77344 | 2829 ft | 143 kts | 241° |
| 2026-05-07 11:59 | 51.67246 | 8.76004 | 2654 ft | 142 kts | 241° |
| 2026-05-07 11:59 | 51.66705 | 8.74669 | 2475 ft | 142 kts | 241° |
| 2026-05-07 11:59 | 51.66165 | 8.73339 | 2283 ft | 142 kts | 241° |
| 2026-05-07 11:59 | 51.65629 | 8.72017 | 2093 ft | 140 kts | 238° |
| 2026-05-07 12:00 | 51.65093 | 8.70691 | 1881 ft | 141 kts | 240° |
| 2026-05-07 12:00 | 51.64553 | 8.69363 | 1667 ft | 139 kts | 241° |
| 2026-05-07 12:00 | 51.64024 | 8.68062 | 1461 ft | 137 kts | 240° |
| 2026-05-07 12:00 | 51.63506 | 8.66789 | 1281 ft | 134 kts | 241° |
| 2026-05-07 12:01 | 51.63001 | 8.65548 | 1107 ft | 133 kts | 241° |
| 2026-05-07 12:01 | 51.62488 | 8.64285 | 934 ft | 133 kts | 240° |
| 2026-05-07 12:01 | 51.61978 | 8.63033 | 749 ft | 134 kts | 242° |
| 2026-05-07 12:01 | 51.61543 | 8.61944 | 699 ft | 76 kts | 236° |
| 2026-05-07 12:02 | 51.61347 | 8.61471 | 713 ft | 41 kts | 238° |
| 2026-05-07 12:02 | 51.61198 | 8.61124 | 717 ft | 29 kts | 219° |
| 2026-05-07 12:02 | 51.61050 | 8.61022 | 720 ft | 10 kts | 175° |
| 2026-05-07 12:02 | 51.61007 | 8.61058 | 720 ft | 9 kts | 122° |
| 2026-05-07 12:03 | 51.60985 | 8.61153 | 722 ft | 11 kts | 102° |
| 2026-05-07 12:03 | 51.60971 | 8.61248 | 725 ft | 12 kts | 103° |
| 2026-05-07 12:03 | 51.60962 | 8.61367 | 731 ft | 13 kts | 83° |
| 2026-05-07 12:03 | 51.61040 | 8.61570 | 730 ft | 28 kts | 57° |
| 2026-05-07 12:04 | 51.61144 | 8.61825 | 731 ft | 24 kts | 56° |
| 2026-05-07 12:04 | 51.61185 | 8.61924 | 731 ft | 0 kts | 56° |
| 2026-05-07 12:04 | 51.61186 | 8.61926 | 731 ft | 2 kts | 58° |
| 2026-05-07 12:04 | 51.61183 | 8.61964 | 731 ft | 3 kts | 123° |
| 2026-05-07 12:05 | 51.61157 | 8.61993 | 731 ft | 1 kts | 143° |
| 2026-05-07 12:05 | 51.61148 | 8.62002 | 731 ft | 0 kts | 147° |